EXS136 LSZS-LHBP
Flight info
| Callsign | EXS136 |
|---|---|
| Flight time | 1h 6m |
| Altitude | 34000 |
| Route | RONAG DCT SUXAN DCT DETSA/N0453F350 DCT SASAL DCT VAJDI |
| Aircraft | B738/M-SDE2E3FGHIRWXY/LB1 |
Departure
| Time | 2026-05-04 08:33 |
|---|---|
| Airport | Engadin Airport (LSZS) |
Arrival
| Time | 2026-05-04 09:39 |
|---|---|
| Airport | Budapest Liszt Ferenc International Airport (LHBP) |
| Time | Latitude | Longitude | Altitude | Speed | Heading |
|---|---|---|---|---|---|
| 2026-05-04 08:17 | 46.53110 | 9.87980 | 5602 ft | 0 kts | 298° |
| 2026-05-04 08:27 | 46.52944 | 9.88123 | 5602 ft | 10 kts | 82° |
| 2026-05-04 08:28 | 46.53040 | 9.88227 | 5604 ft | 26 kts | 30° |
| 2026-05-04 08:28 | 46.53246 | 9.88392 | 5607 ft | 40 kts | 28° |
| 2026-05-04 08:28 | 46.53489 | 9.88592 | 5595 ft | 40 kts | 28° |
| 2026-05-04 08:28 | 46.53731 | 9.88784 | 5587 ft | 39 kts | 30° |
| 2026-05-04 08:29 | 46.53961 | 9.88975 | 5582 ft | 36 kts | 29° |
| 2026-05-04 08:29 | 46.54079 | 9.89058 | 5584 ft | 12 kts | 4° |
| 2026-05-04 08:29 | 46.54110 | 9.89041 | 5582 ft | 0 kts | 321° |
| 2026-05-04 08:31 | 46.52680 | 9.87773 | 5714 ft | 153 kts | 211° |
| 2026-05-04 08:33 | 46.45936 | 9.95001 | 9866 ft | 221 kts | 134° |
| 2026-05-04 08:33 | 46.44953 | 9.96714 | 10764 ft | 219 kts | 128° |
| 2026-05-04 08:35 | 46.47513 | 10.14843 | 13442 ft | 352 kts | 71° |
| 2026-05-04 08:35 | 46.48448 | 10.18253 | 13618 ft | 375 kts | 72° |
| 2026-05-04 08:35 | 46.49419 | 10.21875 | 13853 ft | 394 kts | 72° |
| 2026-05-04 08:35 | 46.50416 | 10.25644 | 14463 ft | 400 kts | 72° |
| 2026-05-04 08:37 | 46.56372 | 10.48791 | 18553 ft | 416 kts | 75° |
| 2026-05-04 08:37 | 46.57043 | 10.52898 | 19024 ft | 420 kts | 79° |
| 2026-05-04 08:37 | 46.57622 | 10.57064 | 19612 ft | 422 kts | 80° |
| 2026-05-04 08:38 | 46.58179 | 10.61268 | 20113 ft | 427 kts | 80° |
| 2026-05-04 08:38 | 46.58551 | 10.64083 | 20410 ft | 430 kts | 80° |
| 2026-05-04 08:38 | 46.59124 | 10.68376 | 20917 ft | 433 kts | 80° |
| 2026-05-04 08:40 | 46.63373 | 10.99230 | 24165 ft | 454 kts | 79° |
| 2026-05-04 08:40 | 46.63994 | 11.03745 | 24565 ft | 456 kts | 79° |
| 2026-05-04 08:40 | 46.64614 | 11.08279 | 24952 ft | 459 kts | 79° |
| 2026-05-04 08:41 | 46.65237 | 11.12846 | 25345 ft | 461 kts | 79° |
| 2026-05-04 08:41 | 46.65861 | 11.17436 | 25706 ft | 463 kts | 79° |
| 2026-05-04 08:41 | 46.66485 | 11.22045 | 26059 ft | 466 kts | 79° |
| 2026-05-04 08:41 | 46.67110 | 11.26681 | 26415 ft | 468 kts | 79° |
| 2026-05-04 08:42 | 46.67739 | 11.31351 | 26772 ft | 471 kts | 79° |
| 2026-05-04 08:42 | 46.68368 | 11.36042 | 27099 ft | 473 kts | 79° |
| 2026-05-04 08:42 | 46.68997 | 11.40748 | 27450 ft | 475 kts | 79° |
| 2026-05-04 08:42 | 46.69628 | 11.45483 | 27806 ft | 477 kts | 79° |
| 2026-05-04 08:43 | 46.70261 | 11.50243 | 28122 ft | 479 kts | 79° |
| 2026-05-04 08:43 | 46.70893 | 11.55022 | 28429 ft | 482 kts | 79° |
| 2026-05-04 08:43 | 46.71536 | 11.59892 | 28726 ft | 484 kts | 79° |
| 2026-05-04 08:43 | 46.72170 | 11.64715 | 29057 ft | 485 kts | 79° |
| 2026-05-04 08:44 | 46.72800 | 11.69531 | 29537 ft | 483 kts | 79° |
| 2026-05-04 08:44 | 46.73429 | 11.74342 | 30005 ft | 482 kts | 79° |
| 2026-05-04 08:46 | 46.77747 | 12.07879 | 32474 ft | 479 kts | 79° |
| 2026-05-04 08:46 | 46.78352 | 12.12649 | 32794 ft | 479 kts | 79° |
| 2026-05-04 08:46 | 46.78957 | 12.17426 | 33133 ft | 478 kts | 79° |
| 2026-05-04 08:46 | 46.79559 | 12.22192 | 33474 ft | 477 kts | 79° |
| 2026-05-04 08:47 | 46.80157 | 12.26947 | 33822 ft | 476 kts | 79° |
| 2026-05-04 08:47 | 46.80762 | 12.31696 | 34144 ft | 475 kts | 79° |
| 2026-05-04 08:47 | 46.81388 | 12.36429 | 34423 ft | 475 kts | 79° |
| 2026-05-04 08:47 | 46.82022 | 12.41156 | 34713 ft | 473 kts | 78° |
| 2026-05-04 08:48 | 46.82654 | 12.45852 | 34986 ft | 472 kts | 79° |
| 2026-05-04 08:48 | 46.83285 | 12.50559 | 35166 ft | 473 kts | 79° |
| 2026-05-04 08:48 | 46.83917 | 12.55303 | 35126 ft | 476 kts | 79° |
| 2026-05-04 08:49 | 46.85168 | 12.64796 | 35113 ft | 474 kts | 79° |
| 2026-05-04 08:50 | 46.89433 | 12.97762 | 35091 ft | 472 kts | 79° |
| 2026-05-04 08:51 | 46.90631 | 13.07162 | 35084 ft | 469 kts | 79° |
| 2026-05-04 08:51 | 46.91820 | 13.16563 | 35090 ft | 470 kts | 79° |
| 2026-05-04 08:52 | 46.93004 | 13.25980 | 35099 ft | 472 kts | 79° |
| 2026-05-04 08:52 | 46.94186 | 13.35452 | 35091 ft | 474 kts | 79° |
| 2026-05-04 08:54 | 46.98852 | 13.73518 | 35100 ft | 474 kts | 79° |
| 2026-05-04 08:55 | 46.99994 | 13.83009 | 35095 ft | 473 kts | 79° |
| 2026-05-04 08:55 | 47.01127 | 13.92488 | 35108 ft | 471 kts | 79° |
| 2026-05-04 09:01 | 47.12532 | 14.92112 | 35103 ft | 472 kts | 80° |
| 2026-05-04 09:01 | 47.13573 | 15.01627 | 35094 ft | 471 kts | 80° |
| 2026-05-04 09:02 | 47.14606 | 15.11134 | 35102 ft | 471 kts | 80° |
| 2026-05-04 09:02 | 47.15629 | 15.20633 | 35100 ft | 471 kts | 80° |
| 2026-05-04 09:03 | 47.16643 | 15.30122 | 35093 ft | 470 kts | 80° |
| 2026-05-04 09:03 | 47.17649 | 15.39605 | 35103 ft | 469 kts | 80° |
| 2026-05-04 09:04 | 47.18645 | 15.49081 | 35088 ft | 469 kts | 80° |
| 2026-05-04 09:04 | 47.19632 | 15.58548 | 35099 ft | 468 kts | 80° |
| 2026-05-04 09:05 | 47.20615 | 15.68059 | 35087 ft | 467 kts | 80° |
| 2026-05-04 09:05 | 47.21584 | 15.77507 | 35094 ft | 468 kts | 80° |
| 2026-05-04 09:06 | 47.22549 | 15.86990 | 35104 ft | 470 kts | 80° |
| 2026-05-04 09:08 | 47.26348 | 16.25170 | 35085 ft | 470 kts | 81° |
| 2026-05-04 09:08 | 47.27275 | 16.34689 | 35087 ft | 469 kts | 81° |
| 2026-05-04 09:09 | 47.28024 | 16.42436 | 35084 ft | 467 kts | 81° |
| 2026-05-04 09:09 | 47.28562 | 16.48129 | 35086 ft | 467 kts | 82° |
| 2026-05-04 09:10 | 47.29185 | 16.57640 | 35090 ft | 466 kts | 84° |
| 2026-05-04 09:10 | 47.29670 | 16.67167 | 35092 ft | 467 kts | 84° |
| 2026-05-04 09:11 | 47.30165 | 16.76699 | 35094 ft | 467 kts | 84° |
| 2026-05-04 09:11 | 47.30679 | 16.86226 | 35095 ft | 467 kts | 84° |
| 2026-05-04 09:12 | 47.31112 | 16.94212 | 35093 ft | 467 kts | 84° |
| 2026-05-04 09:14 | 47.33121 | 17.32679 | 31593 ft | 473 kts | 84° |
| 2026-05-04 09:14 | 47.33364 | 17.37511 | 30841 ft | 473 kts | 84° |
| 2026-05-04 09:14 | 47.33604 | 17.42341 | 30067 ft | 473 kts | 84° |
| 2026-05-04 09:14 | 47.33843 | 17.47166 | 29444 ft | 468 kts | 84° |
| 2026-05-04 09:15 | 47.34074 | 17.51922 | 28845 ft | 462 kts | 84° |
| 2026-05-04 09:15 | 47.34302 | 17.56616 | 28291 ft | 456 kts | 84° |
| 2026-05-04 09:15 | 47.34524 | 17.61242 | 27739 ft | 450 kts | 84° |
| 2026-05-04 09:15 | 47.34744 | 17.65832 | 27181 ft | 445 kts | 84° |
| 2026-05-04 09:17 | 47.36251 | 17.98520 | 23143 ft | 365 kts | 86° |
| 2026-05-04 09:18 | 47.36418 | 18.02269 | 22674 ft | 358 kts | 86° |
| 2026-05-04 09:18 | 47.36579 | 18.05907 | 22218 ft | 352 kts | 86° |
| 2026-05-04 09:18 | 47.36737 | 18.09495 | 21793 ft | 351 kts | 86° |
| 2026-05-04 09:18 | 47.36895 | 18.13127 | 21347 ft | 358 kts | 86° |
| 2026-05-04 09:19 | 47.37055 | 18.16800 | 20879 ft | 360 kts | 86° |
| 2026-05-04 09:19 | 47.37213 | 18.20493 | 20416 ft | 361 kts | 86° |
| 2026-05-04 09:19 | 47.37364 | 18.24185 | 19950 ft | 360 kts | 89° |
| 2026-05-04 09:19 | 47.37152 | 18.27857 | 19486 ft | 360 kts | 102° |
| 2026-05-04 09:20 | 47.36412 | 18.31357 | 19111 ft | 356 kts | 114° |
| 2026-05-04 09:20 | 47.35239 | 18.34568 | 18686 ft | 355 kts | 121° |
| 2026-05-04 09:20 | 47.33953 | 18.37679 | 18201 ft | 355 kts | 122° |
| 2026-05-04 09:20 | 47.32653 | 18.40764 | 17696 ft | 355 kts | 122° |
| 2026-05-04 09:21 | 47.31358 | 18.43851 | 17200 ft | 354 kts | 121° |
| 2026-05-04 09:21 | 47.30076 | 18.46933 | 16738 ft | 352 kts | 121° |
| 2026-05-04 09:21 | 47.28803 | 18.50015 | 16275 ft | 351 kts | 121° |
| 2026-05-04 09:21 | 47.27543 | 18.53078 | 15812 ft | 350 kts | 121° |
| 2026-05-04 09:22 | 47.26282 | 18.56146 | 15356 ft | 349 kts | 121° |
| 2026-05-04 09:22 | 47.25028 | 18.59198 | 14906 ft | 348 kts | 121° |
| 2026-05-04 09:22 | 47.23783 | 18.62229 | 14447 ft | 347 kts | 121° |
| 2026-05-04 09:22 | 47.22531 | 18.65269 | 13988 ft | 347 kts | 121° |
| 2026-05-04 09:23 | 47.21277 | 18.68311 | 13478 ft | 347 kts | 121° |
| 2026-05-04 09:23 | 47.20261 | 18.71513 | 12958 ft | 347 kts | 104° |
| 2026-05-04 09:23 | 47.20106 | 18.74980 | 12484 ft | 337 kts | 83° |
| 2026-05-04 09:23 | 47.20712 | 18.78243 | 12019 ft | 328 kts | 65° |
| 2026-05-04 09:25 | 47.28173 | 18.95725 | 10634 ft | 248 kts | 60° |
| 2026-05-04 09:25 | 47.29086 | 18.97881 | 10545 ft | 248 kts | 60° |
| 2026-05-04 09:26 | 47.29996 | 19.00028 | 10456 ft | 247 kts | 60° |
| 2026-05-04 09:26 | 47.30986 | 19.02108 | 10342 ft | 249 kts | 49° |
| 2026-05-04 09:26 | 47.32252 | 19.03852 | 10230 ft | 251 kts | 43° |
| 2026-05-04 09:26 | 47.33587 | 19.05564 | 9968 ft | 258 kts | 43° |
| 2026-05-04 09:27 | 47.34935 | 19.07319 | 9680 ft | 258 kts | 44° |
| 2026-05-04 09:27 | 47.36261 | 19.09072 | 9433 ft | 255 kts | 44° |
| 2026-05-04 09:27 | 47.37682 | 19.10576 | 9280 ft | 251 kts | 21° |
| 2026-05-04 09:27 | 47.39367 | 19.10885 | 9148 ft | 245 kts | 351° |
| 2026-05-04 09:28 | 47.40945 | 19.09981 | 8914 ft | 245 kts | 324° |
| 2026-05-04 09:28 | 47.42202 | 19.08293 | 8704 ft | 244 kts | 311° |
| 2026-05-04 09:28 | 47.43341 | 19.06419 | 8452 ft | 247 kts | 309° |
| 2026-05-04 09:28 | 47.44486 | 19.04508 | 8202 ft | 249 kts | 309° |
| 2026-05-04 09:29 | 47.45642 | 19.02596 | 7949 ft | 250 kts | 309° |
| 2026-05-04 09:29 | 47.46801 | 19.00687 | 7681 ft | 249 kts | 310° |
| 2026-05-04 09:29 | 47.47961 | 18.98790 | 7447 ft | 247 kts | 310° |
| 2026-05-04 09:29 | 47.49102 | 18.96928 | 7183 ft | 242 kts | 309° |
| 2026-05-04 09:30 | 47.50219 | 18.95109 | 6942 ft | 235 kts | 309° |
| 2026-05-04 09:30 | 47.51285 | 18.93371 | 6682 ft | 222 kts | 309° |
| 2026-05-04 09:30 | 47.52297 | 18.91725 | 6422 ft | 210 kts | 308° |
| 2026-05-04 09:30 | 47.53238 | 18.90196 | 6213 ft | 191 kts | 308° |
| 2026-05-04 09:31 | 47.54083 | 18.88826 | 6012 ft | 171 kts | 306° |
| 2026-05-04 09:31 | 47.55009 | 18.87797 | 5968 ft | 169 kts | 331° |
| 2026-05-04 09:31 | 47.56153 | 18.87232 | 5921 ft | 178 kts | 345° |
| 2026-05-04 09:31 | 47.57387 | 18.87165 | 5783 ft | 176 kts | 6° |
| 2026-05-04 09:32 | 47.58541 | 18.87689 | 5752 ft | 175 kts | 27° |
| 2026-05-04 09:32 | 47.59516 | 18.88758 | 5668 ft | 175 kts | 49° |
| 2026-05-04 09:34 | 47.58815 | 18.99309 | 4483 ft | 152 kts | 134° |
| 2026-05-04 09:34 | 47.58150 | 19.00499 | 4285 ft | 148 kts | 137° |
| 2026-05-04 09:34 | 47.57474 | 19.01638 | 4098 ft | 148 kts | 138° |
| 2026-05-04 09:34 | 47.56787 | 19.02769 | 3894 ft | 147 kts | 139° |
| 2026-05-04 09:35 | 47.56108 | 19.03876 | 3707 ft | 145 kts | 139° |
| 2026-05-04 09:35 | 47.55425 | 19.04981 | 3524 ft | 145 kts | 139° |
| 2026-05-04 09:35 | 47.54745 | 19.06082 | 3329 ft | 145 kts | 139° |
| 2026-05-04 09:35 | 47.54063 | 19.07185 | 3136 ft | 146 kts | 139° |
| 2026-05-04 09:37 | 47.49318 | 19.14870 | 1775 ft | 139 kts | 136° |
| 2026-05-04 09:37 | 47.48663 | 19.15928 | 1606 ft | 141 kts | 137° |
| 2026-05-04 09:38 | 47.47999 | 19.17004 | 1402 ft | 142 kts | 136° |
| 2026-05-04 09:38 | 47.47324 | 19.18098 | 1212 ft | 143 kts | 136° |
| 2026-05-04 09:38 | 47.46655 | 19.19181 | 1018 ft | 145 kts | 136° |
| 2026-05-04 09:38 | 47.45973 | 19.20289 | 824 ft | 143 kts | 137° |
| 2026-05-04 09:39 | 47.45314 | 19.21374 | 630 ft | 140 kts | 135° |
| 2026-05-04 09:39 | 47.44668 | 19.22411 | 464 ft | 133 kts | 136° |
| 2026-05-04 09:39 | 47.44133 | 19.23267 | 454 ft | 85 kts | 134° |
| 2026-05-04 09:39 | 47.43851 | 19.23728 | 455 ft | 41 kts | 133° |
| 2026-05-04 09:40 | 47.43718 | 19.23989 | 457 ft | 36 kts | 104° |
| 2026-05-04 09:40 | 47.43642 | 19.24413 | 452 ft | 45 kts | 110° |
| 2026-05-04 09:40 | 47.43492 | 19.24706 | 453 ft | 29 kts | 129° |
| 2026-05-04 09:40 | 47.43360 | 19.24919 | 457 ft | 27 kts | 130° |
| 2026-05-04 09:41 | 47.43244 | 19.25128 | 459 ft | 25 kts | 109° |
| 2026-05-04 09:42 | 47.43239 | 19.25790 | 475 ft | 0 kts | 45° |
| 2026-05-04 09:43 | 47.32359 | 17.17760 | 33855 ft | 473 kts | 84° |
| 2026-05-04 09:43 | 47.60534 | 18.94593 | 5127 ft | 164 kts | 103° |
| 2026-05-04 09:43 | 47.60317 | 18.96215 | 4927 ft | 156 kts | 124° |
| 2026-05-04 09:44 | 47.59679 | 18.97433 | 4781 ft | 153 kts | 132° |
| 2026-05-04 09:44 | 47.59091 | 18.98763 | 4585 ft | 153 kts | 131° |
| 2026-05-04 09:44 | 47.58441 | 18.99991 | 4373 ft | 149 kts | 136° |
| 2026-05-04 09:46 | 47.53898 | 19.07451 | 3092 ft | 147 kts | 138° |
| 2026-05-04 09:46 | 47.53209 | 19.08566 | 2895 ft | 147 kts | 138° |
| 2026-05-04 09:46 | 47.52528 | 19.09668 | 2687 ft | 143 kts | 138° |
| 2026-05-04 09:47 | 47.51860 | 19.10750 | 2506 ft | 144 kts | 137° |
| 2026-05-04 09:47 | 47.51174 | 19.11860 | 2327 ft | 148 kts | 137° |
| 2026-05-04 09:49 | 47.44919 | 19.22011 | 511 ft | 137 kts | 136° |
| 2026-05-04 09:49 | 47.44308 | 19.22975 | 458 ft | 109 kts | 130° |
| 2026-05-04 09:49 | 47.46180 | 19.19953 | 886 ft | 143 kts | 137° |
| 2026-05-04 09:51 | 47.43668 | 19.24280 | 455 ft | 45 kts | 104° |